createdAt,value
2023-04-16T00:02:14.702Z,10.80
2023-04-16T00:04:42.031Z,10.65
2023-04-16T00:07:09.546Z,7.07
2023-04-16T00:09:36.781Z,9.13
2023-04-16T00:12:04.450Z,5.80
2023-04-16T00:14:31.653Z,8.38
2023-04-16T00:16:58.997Z,10.60
2023-04-16T00:19:26.252Z,12.90
2023-04-16T00:21:53.776Z,8.13
2023-04-16T00:24:21.049Z,12.02
2023-04-16T00:26:48.219Z,16.58
2023-04-16T00:29:15.535Z,8.88
2023-04-16T00:31:42.721Z,8.80
2023-04-16T00:34:10.041Z,13.67
2023-04-16T00:36:37.277Z,11.80
2023-04-16T00:39:05.586Z,10.52
2023-04-16T00:41:32.867Z,11.60
2023-04-16T00:44:00.011Z,12.48
2023-04-16T00:46:27.577Z,10.03
2023-04-16T00:48:56.283Z,14.45
2023-04-16T00:51:23.918Z,14.27
2023-04-16T00:53:51.521Z,11.98
2023-04-16T00:56:20.532Z,10.90
2023-04-16T00:58:48.464Z,16.37
2023-04-16T01:01:15.839Z,11.77
2023-04-16T01:03:45.795Z,8.50
2023-04-16T01:06:13.699Z,13.05
2023-04-16T01:08:40.911Z,9.52
2023-04-16T01:11:08.442Z,10.30
2023-04-16T01:13:39.268Z,13.02
2023-04-16T01:16:11.948Z,13.10
2023-04-16T01:18:39.659Z,13.13
2023-04-16T01:21:07.029Z,13.85
2023-04-16T01:23:34.479Z,6.33
2023-04-16T01:26:05.791Z,13.70
2023-04-16T01:28:33.052Z,9.23
2023-04-16T01:31:00.544Z,14.30
2023-04-16T01:33:37.709Z,11.40
2023-04-16T01:36:05.289Z,8.87
2023-04-16T01:38:32.595Z,13.00
2023-04-16T01:40:59.954Z,10.10
2023-04-16T01:43:27.139Z,12.65
2023-04-16T01:46:11.088Z,14.35
2023-04-16T01:48:38.312Z,9.07
2023-04-16T01:51:05.912Z,14.23
2023-04-16T01:53:34.718Z,16.45
2023-04-16T01:56:04.111Z,11.27
2023-04-16T01:58:33.598Z,11.35
2023-04-16T02:01:01.337Z,10.33
2023-04-16T02:03:28.857Z,10.75
2023-04-16T02:05:56.262Z,12.20
2023-04-16T02:08:23.514Z,13.80
2023-04-16T02:10:51.134Z,10.60
2023-04-16T02:13:18.383Z,13.13
2023-04-16T02:15:49.149Z,12.82
2023-04-16T02:18:21.013Z,9.70
2023-04-16T02:20:49.718Z,9.88
2023-04-16T02:23:17.494Z,6.03
2023-04-16T02:25:47.308Z,10.23
2023-04-16T02:28:16.720Z,10.65
2023-04-16T02:30:45.730Z,8.35
2023-04-16T02:33:14.777Z,14.13
2023-04-16T02:35:53.186Z,9.88
2023-04-16T02:38:20.391Z,11.07
2023-04-16T02:40:47.668Z,10.85
2023-04-16T02:43:16.570Z,10.35
2023-04-16T02:45:44.780Z,11.05
2023-04-16T02:48:12.129Z,10.32
2023-04-16T02:50:39.320Z,11.10
2023-04-16T02:53:07.742Z,11.82
2023-04-16T02:55:34.965Z,12.10
2023-04-16T02:58:02.140Z,12.48
2023-04-16T03:00:29.413Z,19.02
2023-04-16T03:02:57.082Z,9.87
2023-04-16T03:05:24.544Z,16.90
2023-04-16T03:07:56.517Z,13.48
2023-04-16T03:10:24.861Z,11.88
2023-04-16T03:12:52.177Z,11.75
2023-04-16T03:15:19.387Z,14.73
2023-04-16T03:17:46.866Z,16.20
2023-04-16T03:20:14.477Z,15.02
2023-04-16T03:22:42.164Z,18.73
2023-04-16T03:25:09.604Z,18.73
2023-04-16T03:27:36.882Z,21.50
2023-04-16T03:30:05.421Z,22.17
2023-04-16T03:32:34.986Z,23.45
2023-04-16T03:35:05.173Z,16.77
2023-04-16T03:37:32.754Z,19.75
2023-04-16T03:40:00.193Z,22.03
2023-04-16T03:42:27.420Z,16.83
2023-04-16T03:44:54.630Z,14.40
2023-04-16T03:47:23.006Z,25.42
2023-04-16T03:49:53.475Z,19.73
2023-04-16T03:52:20.709Z,22.70
2023-04-16T03:54:48.181Z,23.92
2023-04-16T03:57:23.319Z,27.95
2023-04-16T03:59:51.585Z,32.38
2023-04-16T04:02:19.391Z,31.90
2023-04-16T04:04:46.819Z,29.67
2023-04-16T04:07:15.717Z,35.67
2023-04-16T04:09:43.189Z,25.77
2023-04-16T04:12:10.430Z,30.95
2023-04-16T04:14:39.969Z,30.98
2023-04-16T04:17:08.687Z,28.53
2023-04-16T04:19:36.269Z,25.15
2023-04-16T04:22:04.271Z,33.35
2023-04-16T04:24:31.541Z,31.95
2023-04-16T04:26:59.216Z,36.33
2023-04-16T04:29:26.354Z,25.37
2023-04-16T04:31:55.114Z,29.60
2023-04-16T04:34:23.686Z,31.25
2023-04-16T04:36:51.370Z,25.00
2023-04-16T04:39:21.461Z,31.77
2023-04-16T04:41:50.070Z,37.90
2023-04-16T04:44:18.774Z,29.02
2023-04-16T04:46:46.122Z,26.35
2023-04-16T04:49:15.745Z,24.55
2023-04-16T04:51:42.990Z,28.98
2023-04-16T04:54:10.363Z,24.10
2023-04-16T04:56:37.613Z,21.10
2023-04-16T04:59:04.806Z,23.38
2023-04-16T05:01:32.067Z,23.52
2023-04-16T05:03:59.419Z,19.30
2023-04-16T05:06:29.476Z,21.47
2023-04-16T05:08:57.025Z,31.45
2023-04-16T05:11:24.503Z,23.73
2023-04-16T05:13:51.994Z,28.13
2023-04-16T05:16:19.229Z,26.42
2023-04-16T05:18:46.402Z,31.20
2023-04-16T05:21:13.710Z,24.80
2023-04-16T05:23:40.862Z,29.83
2023-04-16T05:26:08.027Z,29.77
2023-04-16T05:28:35.250Z,26.27
2023-04-16T05:31:02.608Z,26.67
2023-04-16T05:33:29.854Z,33.78
2023-04-16T05:35:57.075Z,26.23
2023-04-16T05:38:24.272Z,27.73
2023-04-16T05:40:51.658Z,34.25
2023-04-16T05:43:18.902Z,26.80
2023-04-16T05:45:46.152Z,30.42
2023-04-16T05:48:13.806Z,27.15
2023-04-16T05:50:41.132Z,23.33
2023-04-16T05:53:09.570Z,25.55
2023-04-16T05:55:36.920Z,19.80
2023-04-16T05:58:04.997Z,20.60
2023-04-16T06:00:35.649Z,20.52
2023-04-16T06:03:03.678Z,24.90
2023-04-16T06:05:32.247Z,27.20
2023-04-16T06:07:59.581Z,28.73
2023-04-16T06:10:26.907Z,28.80
2023-04-16T06:12:54.219Z,22.52
2023-04-16T06:15:21.413Z,31.48
2023-04-16T06:17:49.689Z,22.85
2023-04-16T06:20:17.038Z,23.23
2023-04-16T06:22:44.306Z,17.77
2023-04-16T06:25:11.554Z,18.10
2023-04-16T06:27:38.768Z,21.42
2023-04-16T06:30:11.182Z,24.77
2023-04-16T06:32:38.608Z,23.50
2023-04-16T06:35:06.486Z,22.30
2023-04-16T06:37:33.637Z,22.25
2023-04-16T06:40:00.905Z,26.20
2023-04-16T06:42:28.226Z,22.25
2023-04-16T06:44:55.413Z,27.10
2023-04-16T06:47:22.665Z,22.17
2023-04-16T06:49:49.938Z,29.02
2023-04-16T06:52:17.190Z,29.23
2023-04-16T06:54:44.451Z,24.67
2023-04-16T06:57:11.755Z,29.77
2023-04-16T06:59:39.050Z,31.98
2023-04-16T07:02:08.928Z,24.88
2023-04-16T07:04:36.282Z,26.75
2023-04-16T07:07:03.486Z,25.17
2023-04-16T07:09:30.796Z,25.10
2023-04-16T07:11:57.982Z,22.27
2023-04-16T07:14:25.289Z,29.65
2023-04-16T07:16:52.595Z,24.85
2023-04-16T07:19:20.020Z,24.50
2023-04-16T07:21:47.263Z,23.00
2023-04-16T07:24:14.567Z,20.95
2023-04-16T07:26:41.782Z,21.38
2023-04-16T07:29:09.041Z,19.55
2023-04-16T07:31:36.544Z,21.88
2023-04-16T07:34:03.775Z,23.77
2023-04-16T07:36:31.749Z,22.20
2023-04-16T07:38:58.978Z,20.13
2023-04-16T07:41:26.294Z,21.45
2023-04-16T07:43:53.483Z,20.88
2023-04-16T07:46:21.835Z,19.40
2023-04-16T07:48:51.663Z,19.40
2023-04-16T07:51:18.848Z,22.20
2023-04-16T07:53:46.003Z,19.40
2023-04-16T07:56:13.170Z,20.05
2023-04-16T07:58:40.395Z,17.80
2023-04-16T08:01:07.656Z,17.50
2023-04-16T08:03:35.175Z,19.48
2023-04-16T08:06:02.532Z,20.58
2023-04-16T08:08:30.053Z,21.02
2023-04-16T08:10:57.989Z,18.43
2023-04-16T08:13:25.281Z,21.45
2023-04-16T08:15:52.598Z,20.40
2023-04-16T08:18:19.902Z,15.88
2023-04-16T08:20:47.103Z,20.73
2023-04-16T08:23:14.490Z,19.83
2023-04-16T08:25:41.666Z,15.63
2023-04-16T08:28:08.865Z,14.27
2023-04-16T08:30:36.258Z,24.30
2023-04-16T08:33:03.591Z,23.77
2023-04-16T08:35:30.939Z,20.40
2023-04-16T08:38:02.164Z,18.65
2023-04-16T08:40:31.183Z,23.65
2023-04-16T08:43:00.331Z,16.00
2023-04-16T08:45:27.876Z,16.88
2023-04-16T08:47:55.205Z,12.33
2023-04-16T08:50:28.222Z,17.92
2023-04-16T08:52:59.703Z,13.50
2023-04-16T08:55:35.914Z,21.42
2023-04-16T08:58:09.169Z,15.93
2023-04-16T09:00:38.834Z,16.13
2023-04-16T09:03:07.113Z,18.52
2023-04-16T09:05:35.472Z,15.10
2023-04-16T09:08:02.926Z,15.73
2023-04-16T09:10:30.220Z,17.00
2023-04-16T09:12:57.811Z,16.03
2023-04-16T09:15:25.791Z,13.40
2023-04-16T09:17:54.160Z,14.80
2023-04-16T09:20:21.466Z,14.27
2023-04-16T09:22:48.841Z,16.42
2023-04-16T09:25:16.217Z,19.73
2023-04-16T09:27:44.153Z,15.73
2023-04-16T09:30:26.088Z,13.77
2023-04-16T09:33:17.255Z,16.40
2023-04-16T09:35:49.228Z,19.60
2023-04-16T09:38:16.769Z,17.70
2023-04-16T09:40:44.056Z,19.00
2023-04-16T09:43:15.423Z,19.85
2023-04-16T09:45:53.370Z,20.38
2023-04-16T09:48:34.124Z,23.45
2023-04-16T09:51:01.681Z,22.83
2023-04-16T09:53:30.991Z,27.13
2023-04-16T09:55:59.840Z,17.33
2023-04-16T09:58:27.670Z,18.60
2023-04-16T10:01:07.930Z,22.13
2023-04-16T10:03:37.461Z,19.77
2023-04-16T10:06:14.830Z,17.85
2023-04-16T10:08:53.324Z,18.27
2023-04-16T10:11:21.381Z,18.98
2023-04-16T10:13:49.458Z,20.45
2023-04-16T10:16:17.714Z,21.73
2023-04-16T10:18:46.375Z,18.48
2023-04-16T10:21:15.332Z,20.13
2023-04-16T10:23:44.192Z,23.02
2023-04-16T10:26:11.547Z,18.67
2023-04-16T10:28:39.293Z,19.77
2023-04-16T10:31:08.608Z,19.02
2023-04-16T10:33:39.324Z,21.55
2023-04-16T10:36:15.300Z,22.73
2023-04-16T10:38:47.600Z,19.90
2023-04-16T10:41:14.921Z,24.67
2023-04-16T10:43:48.423Z,26.77
2023-04-16T10:46:29.235Z,22.75
2023-04-16T10:49:01.593Z,23.42
2023-04-16T10:51:34.428Z,21.73
2023-04-16T10:54:14.565Z,24.07
2023-04-16T10:56:44.115Z,21.38
2023-04-16T10:59:12.400Z,26.45
2023-04-16T11:01:44.614Z,27.33
2023-04-16T11:04:23.808Z,25.42
2023-04-16T11:07:13.913Z,25.57
2023-04-16T11:09:50.233Z,27.15
2023-04-16T11:12:22.202Z,24.77
2023-04-16T11:14:55.263Z,22.58
2023-04-16T11:17:22.763Z,21.85
2023-04-16T11:19:50.904Z,25.17
2023-04-16T11:22:21.189Z,25.00
2023-04-16T11:24:53.749Z,22.20
2023-04-16T11:27:21.055Z,21.90
2023-04-16T11:29:58.046Z,20.92
2023-04-16T11:32:25.365Z,27.30
2023-04-16T11:34:52.552Z,19.42
2023-04-16T11:37:35.973Z,23.42
2023-04-16T11:40:06.733Z,27.73
2023-04-16T11:42:38.090Z,22.88
2023-04-16T11:45:06.597Z,24.43
2023-04-16T11:47:46.839Z,21.23
2023-04-16T11:50:25.001Z,25.73
2023-04-16T11:52:57.086Z,29.33
2023-04-16T11:55:24.768Z,24.30
2023-04-16T11:57:52.380Z,25.83
2023-04-16T12:00:23.111Z,25.92
2023-04-16T12:02:56.991Z,24.20
2023-04-16T12:05:41.386Z,23.65
2023-04-16T12:08:10.583Z,20.38
2023-04-16T12:10:53.988Z,21.53
2023-04-16T12:13:21.408Z,20.92
2023-04-16T12:15:53.147Z,19.73
2023-04-16T12:18:22.993Z,19.00
2023-04-16T12:20:53.504Z,22.42
2023-04-16T12:23:28.863Z,21.20
2023-04-16T12:25:59.585Z,19.75
2023-04-16T12:28:34.874Z,24.23
2023-04-16T12:31:03.209Z,28.10
2023-04-16T12:33:31.099Z,24.88
2023-04-16T12:35:58.509Z,24.95
2023-04-16T12:38:26.671Z,21.05
2023-04-16T12:40:56.873Z,27.88
2023-04-16T12:43:24.953Z,28.45
2023-04-16T12:45:52.138Z,22.83
2023-04-16T12:48:19.402Z,19.00
2023-04-16T12:50:46.882Z,21.92
2023-04-16T12:53:14.181Z,19.52
2023-04-16T12:55:41.469Z,22.10
2023-04-16T12:58:10.552Z,18.65
2023-04-16T13:00:39.810Z,20.67
2023-04-16T13:03:07.102Z,17.38
2023-04-16T13:05:34.528Z,16.83
2023-04-16T13:08:02.107Z,19.17
2023-04-16T13:10:29.324Z,15.77
2023-04-16T13:12:56.933Z,20.17
2023-04-16T13:15:24.159Z,21.35
2023-04-16T13:17:51.389Z,15.30
2023-04-16T13:20:18.616Z,18.27
2023-04-16T13:22:45.877Z,15.20
2023-04-16T13:25:13.094Z,18.83
2023-04-16T13:27:40.333Z,20.85
2023-04-16T13:30:08.227Z,24.67
2023-04-16T13:32:35.688Z,18.35
2023-04-16T13:35:02.949Z,19.25
2023-04-16T13:37:30.360Z,19.17
2023-04-16T13:39:57.597Z,25.13
2023-04-16T13:42:24.799Z,26.15
2023-04-16T13:44:54.208Z,20.85
2023-04-16T13:47:21.662Z,19.38
2023-04-16T13:49:49.077Z,20.02
2023-04-16T13:52:16.791Z,20.92
2023-04-16T13:54:44.079Z,19.30
2023-04-16T13:57:19.838Z,16.15
2023-04-16T13:59:47.131Z,20.08
2023-04-16T14:02:14.699Z,18.77
2023-04-16T14:04:42.004Z,23.00
2023-04-16T14:07:09.188Z,22.20
2023-04-16T14:09:36.505Z,19.05
2023-04-16T14:12:03.880Z,18.10
2023-04-16T14:14:31.138Z,17.97
2023-04-16T14:16:58.845Z,18.67
2023-04-16T14:19:26.168Z,24.60
2023-04-16T14:21:54.315Z,19.27
2023-04-16T14:24:21.513Z,18.48
2023-04-16T14:26:48.746Z,14.98
2023-04-16T14:29:16.072Z,17.80
2023-04-16T14:31:43.288Z,16.55
2023-04-16T14:34:10.770Z,16.67
2023-04-16T14:36:40.828Z,17.55
2023-04-16T14:39:08.718Z,17.43
2023-04-16T14:41:36.087Z,23.25
2023-04-16T14:44:05.961Z,16.30
2023-04-16T14:46:33.742Z,26.27
2023-04-16T14:49:01.233Z,19.02
2023-04-16T14:51:28.496Z,20.70
2023-04-16T14:53:56.518Z,21.42
2023-04-16T14:56:23.776Z,23.23
2023-04-16T14:58:51.010Z,17.38
2023-04-16T15:01:18.387Z,22.38
2023-04-16T15:03:45.744Z,21.40
2023-04-16T15:06:14.006Z,20.58
2023-04-16T15:08:41.478Z,26.35
2023-04-16T15:11:08.695Z,29.00
2023-04-16T15:13:35.941Z,22.30
2023-04-16T15:16:04.777Z,20.63
2023-04-16T15:18:32.996Z,22.05
2023-04-16T15:21:00.429Z,17.85
2023-04-16T15:23:27.629Z,24.52
2023-04-16T15:25:54.872Z,17.70
2023-04-16T15:28:22.088Z,21.55
2023-04-16T15:30:51.903Z,19.35
2023-04-16T15:33:21.228Z,20.67
2023-04-16T15:35:48.492Z,20.92
2023-04-16T15:38:15.654Z,26.55
2023-04-16T15:40:42.854Z,24.55
2023-04-16T15:43:10.154Z,20.98
2023-04-16T15:45:37.604Z,21.92
2023-04-16T15:48:05.981Z,27.73
2023-04-16T15:50:33.559Z,24.05
2023-04-16T15:53:00.943Z,20.30
2023-04-16T15:55:28.203Z,20.55
2023-04-16T15:57:55.540Z,29.23
2023-04-16T16:00:22.965Z,25.17
2023-04-16T16:02:50.372Z,24.80
2023-04-16T16:05:17.778Z,13.95
2023-04-16T16:07:45.434Z,20.40
2023-04-16T16:10:13.538Z,20.80
2023-04-16T16:12:41.472Z,21.65
2023-04-16T16:15:10.907Z,18.98
2023-04-16T16:17:38.595Z,17.23
2023-04-16T16:20:10.228Z,18.23
2023-04-16T16:22:38.173Z,18.25
2023-04-16T16:25:07.465Z,23.95
2023-04-16T16:27:36.163Z,22.02
2023-04-16T16:30:06.468Z,18.98
2023-04-16T16:32:33.834Z,24.63
2023-04-16T16:35:01.436Z,19.40
2023-04-16T16:37:29.269Z,20.77
2023-04-16T16:39:56.747Z,21.17
2023-04-16T16:42:24.156Z,20.57
2023-04-16T16:44:51.381Z,19.65
2023-04-16T16:47:18.837Z,20.73
2023-04-16T16:49:46.595Z,20.73
2023-04-16T16:52:13.796Z,22.83
2023-04-16T16:54:42.612Z,22.83
2023-04-16T16:57:09.819Z,19.10
2023-04-16T16:59:37.022Z,22.80
2023-04-16T17:02:04.271Z,21.40
2023-04-16T17:04:31.630Z,23.38
2023-04-16T17:06:58.937Z,22.17
2023-04-16T17:09:26.691Z,19.83
2023-04-16T17:11:53.940Z,20.30
2023-04-16T17:14:21.139Z,21.65
2023-04-16T17:16:49.774Z,21.30
2023-04-16T17:19:17.872Z,17.53
2023-04-16T17:21:45.440Z,22.27
2023-04-16T17:24:12.764Z,21.23
2023-04-16T17:26:41.097Z,19.77
2023-04-16T17:29:08.329Z,20.33
2023-04-16T17:31:35.872Z,18.07
2023-04-16T17:34:05.777Z,21.48
2023-04-16T17:36:33.228Z,21.13
2023-04-16T17:39:00.480Z,24.45
2023-04-16T17:41:27.694Z,26.70
2023-04-16T17:43:54.922Z,22.73
2023-04-16T17:46:22.309Z,22.52
2023-04-16T17:48:49.503Z,24.25
2023-04-16T17:51:16.735Z,26.40
2023-04-16T17:53:44.639Z,26.58
2023-04-16T17:56:12.883Z,19.60
2023-04-16T17:58:40.237Z,21.13
2023-04-16T18:01:07.474Z,23.15
2023-04-16T18:03:35.008Z,22.38
2023-04-16T18:06:02.386Z,23.00
2023-04-16T18:08:29.732Z,25.03
2023-04-16T18:10:57.066Z,24.70
2023-04-16T18:13:24.595Z,22.65
2023-04-16T18:15:52.921Z,28.52
2023-04-16T18:18:21.196Z,29.00
2023-04-16T18:20:48.431Z,27.90
2023-04-16T18:23:15.647Z,33.20
2023-04-16T18:25:43.097Z,30.80
2023-04-16T18:28:13.624Z,31.25
2023-04-16T18:30:41.430Z,31.98
2023-04-16T18:33:34.223Z,26.43
2023-04-16T18:35:55.912Z,25.90
2023-04-16T18:38:23.142Z,25.08
2023-04-16T18:40:50.320Z,26.67
2023-04-16T18:43:17.668Z,24.88
2023-04-16T18:45:44.852Z,27.30
2023-04-16T18:48:12.049Z,27.08
2023-04-16T18:50:39.277Z,27.25
2023-04-16T18:53:06.474Z,32.08
2023-04-16T18:55:33.796Z,26.95
2023-04-16T18:58:01.078Z,29.33
2023-04-16T19:00:28.324Z,27.92
2023-04-16T19:02:55.706Z,29.77
2023-04-16T19:05:23.015Z,34.15
2023-04-16T19:07:50.249Z,39.60
2023-04-16T19:10:17.506Z,31.20
2023-04-16T19:12:44.756Z,34.38
2023-04-16T19:15:11.998Z,34.72
2023-04-16T19:17:39.827Z,32.35
2023-04-16T19:20:11.378Z,33.00
2023-04-16T19:22:38.806Z,31.03
2023-04-16T19:25:07.154Z,28.88
2023-04-16T19:27:36.680Z,29.20
2023-04-16T19:30:04.557Z,29.77
2023-04-16T19:32:31.969Z,27.88
2023-04-16T19:34:59.223Z,31.33
2023-04-16T19:37:27.140Z,27.23
2023-04-16T19:39:54.919Z,28.23
2023-04-16T19:42:22.257Z,29.33
2023-04-16T19:44:49.486Z,30.85
2023-04-16T19:47:16.767Z,38.00
2023-04-16T19:49:44.030Z,31.35
2023-04-16T19:52:11.298Z,26.98
2023-04-16T19:54:38.618Z,30.88
2023-04-16T19:57:06.020Z,30.30
2023-04-16T19:59:33.316Z,25.20
2023-04-16T20:02:01.063Z,27.92
2023-04-16T20:04:28.399Z,30.85
2023-04-16T20:06:55.831Z,28.33
2023-04-16T20:09:25.280Z,29.90
2023-04-16T20:11:52.540Z,31.53
2023-04-16T20:14:19.754Z,30.42
2023-04-16T20:16:46.962Z,28.08
2023-04-16T20:19:17.178Z,28.35
2023-04-16T20:21:45.508Z,26.83
2023-04-16T20:24:12.733Z,25.40
2023-04-16T20:26:40.045Z,29.77
2023-04-16T20:29:07.317Z,27.50
2023-04-16T20:31:34.520Z,29.85
2023-04-16T20:34:01.757Z,29.35
2023-04-16T20:36:28.971Z,33.13
2023-04-16T20:38:56.214Z,28.92
2023-04-16T20:41:25.005Z,26.55
2023-04-16T20:43:52.859Z,28.48
2023-04-16T20:46:24.155Z,31.77
2023-04-16T20:48:51.869Z,31.17
2023-04-16T20:51:19.183Z,31.75
2023-04-16T20:53:46.444Z,35.22
2023-04-16T20:56:14.980Z,34.33
2023-04-16T20:58:42.809Z,32.53
2023-04-16T21:01:10.196Z,35.53
2023-04-16T21:03:37.724Z,34.03
2023-04-16T21:06:05.185Z,34.30
2023-04-16T21:08:32.484Z,32.05
2023-04-16T21:10:59.770Z,36.00
2023-04-16T21:13:26.968Z,30.13
2023-04-16T21:15:54.169Z,30.75
2023-04-16T21:18:21.415Z,34.40
2023-04-16T21:20:48.677Z,31.67
2023-04-16T21:23:15.910Z,34.53
2023-04-16T21:25:43.116Z,32.30
2023-04-16T21:28:10.488Z,33.85
2023-04-16T21:30:38.253Z,33.45
2023-04-16T21:33:06.034Z,36.85
2023-04-16T21:35:33.668Z,33.05
2023-04-16T21:38:00.878Z,33.00
2023-04-16T21:40:28.142Z,32.95
2023-04-16T21:42:55.506Z,36.10
2023-04-16T21:45:22.665Z,43.85
2023-04-16T21:47:49.904Z,34.50
2023-04-16T21:50:17.221Z,33.70
2023-04-16T21:52:46.065Z,35.72
2023-04-16T21:55:14.393Z,36.95
2023-04-16T21:57:41.714Z,35.67
2023-04-16T22:00:13.648Z,37.53
2023-04-16T22:02:44.566Z,32.03
2023-04-16T22:05:12.143Z,38.70
2023-04-16T22:07:39.337Z,38.70
2023-04-16T22:10:08.644Z,33.78
2023-04-16T22:12:39.813Z,37.38
2023-04-16T22:15:08.964Z,34.50
2023-04-16T22:17:36.309Z,33.70
2023-04-16T22:20:08.883Z,33.30
2023-04-16T22:22:36.168Z,33.40
2023-04-16T22:25:03.574Z,34.95
2023-04-16T22:27:30.998Z,35.60
2023-04-16T22:29:58.244Z,38.10
2023-04-16T22:32:25.585Z,37.42
2023-04-16T22:34:52.877Z,35.33
2023-04-16T22:37:20.076Z,34.85
2023-04-16T22:39:47.335Z,38.93
2023-04-16T22:42:14.553Z,35.45
2023-04-16T22:44:41.809Z,31.40
2023-04-16T22:47:09.053Z,43.42
2023-04-16T22:49:36.222Z,38.45
2023-04-16T22:52:03.584Z,42.43
2023-04-16T22:54:31.410Z,39.05
2023-04-16T22:56:58.989Z,38.67
2023-04-16T22:59:26.321Z,41.63
2023-04-16T23:01:53.638Z,42.38
2023-04-16T23:04:20.873Z,42.93
2023-04-16T23:06:48.076Z,40.08
2023-04-16T23:09:15.532Z,41.45
2023-04-16T23:11:42.730Z,39.03
2023-04-16T23:14:09.933Z,33.22
2023-04-16T23:16:37.098Z,36.77
2023-04-16T23:19:04.311Z,33.00
2023-04-16T23:21:32.375Z,34.03
2023-04-16T23:23:59.619Z,37.97
2023-04-16T23:26:26.939Z,36.47
2023-04-16T23:28:54.151Z,36.33
2023-04-16T23:31:21.365Z,32.85
2023-04-16T23:33:48.669Z,34.03
2023-04-16T23:36:15.829Z,39.92
2023-04-16T23:38:42.995Z,38.80
2023-04-16T23:41:10.162Z,41.13
2023-04-16T23:43:39.968Z,43.58
2023-04-16T23:46:07.509Z,41.15
2023-04-16T23:48:34.751Z,44.95
2023-04-16T23:51:02.017Z,44.08
2023-04-16T23:53:29.256Z,46.13
2023-04-16T23:55:56.456Z,43.92
2023-04-16T23:58:24.207Z,45.47
